createdAt,value
2023-01-17T00:01:30.257Z,97655.16
2023-01-17T00:04:15.501Z,97650.94
2023-01-17T00:07:00.551Z,97646.72
2023-01-17T00:09:45.500Z,97647.88
2023-01-17T00:12:12.032Z,97644.81
2023-01-17T00:14:38.527Z,97636.78
2023-01-17T00:17:05.054Z,97637.16
2023-01-17T00:19:50.089Z,97632.19
2023-01-17T00:22:46.656Z,97633.69
2023-01-17T00:25:42.057Z,97634.47
2023-01-17T00:28:08.619Z,97625.28
2023-01-17T00:30:35.956Z,97619.94
2023-01-17T00:33:02.742Z,97620.69
2023-01-17T00:35:31.045Z,97626.06
2023-01-17T00:38:02.246Z,97624.91
2023-01-17T00:40:28.888Z,97613.81
2023-01-17T00:43:14.019Z,97613.81
2023-01-17T00:46:01.335Z,97618.38
2023-01-17T00:48:46.846Z,97624.16
2023-01-17T00:51:31.978Z,97617.63
2023-01-17T00:54:18.985Z,97618.41
2023-01-17T00:57:04.369Z,97621.44
2023-01-17T00:59:49.581Z,97611.88
2023-01-17T01:02:35.005Z,97620.28
2023-01-17T01:05:20.500Z,97610.72
2023-01-17T01:08:05.797Z,97611.13
2023-01-17T01:10:51.758Z,97608.44
2023-01-17T01:13:37.401Z,97617.22
2023-01-17T01:16:22.883Z,97618.41
2023-01-17T01:19:08.118Z,97606.91
2023-01-17T01:21:53.465Z,97606.91
2023-01-17T01:24:38.777Z,97607.69
2023-01-17T01:27:23.934Z,97594.66
2023-01-17T01:30:09.341Z,97598.09
2023-01-17T01:32:54.819Z,97590.84
2023-01-17T01:35:22.355Z,97601.53
2023-01-17T01:37:49.142Z,97599.63
2023-01-17T01:40:18.266Z,97597.72
2023-01-17T01:42:52.222Z,97592.72
2023-01-17T01:45:22.371Z,97586.63
2023-01-17T01:47:49.923Z,97595.03
2023-01-17T01:50:17.414Z,97585.88
2023-01-17T01:52:46.605Z,97587.41
2023-01-17T01:55:18.704Z,97581.28
2023-01-17T01:57:48.722Z,97584.72
2023-01-17T02:00:27.430Z,97581.66
2023-01-17T02:02:56.409Z,97580.50
2023-01-17T02:05:24.078Z,97584.72
2023-01-17T02:07:59.466Z,97581.25
2023-01-17T02:10:25.996Z,97574.75
2023-01-17T02:12:53.386Z,97578.97
2023-01-17T02:15:23.105Z,97570.94
2023-01-17T02:17:59.907Z,97573.63
2023-01-17T02:20:43.124Z,97568.63
2023-01-17T02:23:45.254Z,97567.13
2023-01-17T02:26:31.346Z,97571.31
2023-01-17T02:29:19.522Z,97573.63
2023-01-17T02:31:58.893Z,97562.53
2023-01-17T02:34:35.046Z,97574.38
2023-01-17T02:37:09.869Z,97565.59
2023-01-17T02:39:40.403Z,97572.09
2023-01-17T02:42:11.029Z,97564.81
2023-01-17T02:44:41.892Z,97572.84
2023-01-17T02:47:29.689Z,97567.88
2023-01-17T02:50:01.509Z,97580.50
2023-01-17T02:53:03.760Z,97567.88
2023-01-17T02:56:07.751Z,97572.44
2023-01-17T02:58:57.171Z,97578.59
2023-01-17T03:01:43.550Z,97577.81
2023-01-17T03:04:16.666Z,97582.78
2023-01-17T03:06:56.171Z,97579.34
2023-01-17T03:09:23.432Z,97575.91
2023-01-17T03:11:49.937Z,97579.31
2023-01-17T03:14:16.424Z,97581.25
2023-01-17T03:16:43.083Z,97582.41
2023-01-17T03:19:09.944Z,97585.44
2023-01-17T03:21:36.428Z,97577.03
2023-01-17T03:24:03.187Z,97583.16
2023-01-17T03:26:30.232Z,97574.72
2023-01-17T03:28:56.732Z,97575.09
2023-01-17T03:31:23.226Z,97577.78
2023-01-17T03:33:49.705Z,97573.94
2023-01-17T03:36:16.239Z,97576.25
2023-01-17T03:38:42.851Z,97580.84
2023-01-17T03:41:09.366Z,97590.78
2023-01-17T03:43:35.907Z,97583.13
2023-01-17T03:46:04.208Z,97585.44
2023-01-17T03:48:30.818Z,97596.94
2023-01-17T03:50:57.291Z,97583.88
2023-01-17T03:53:23.954Z,97592.31
2023-01-17T03:55:50.490Z,97587.34
2023-01-17T03:58:17.337Z,97591.53
2023-01-17T04:00:43.845Z,97590.78
2023-01-17T04:03:10.341Z,97596.94
2023-01-17T04:05:36.833Z,97591.56
2023-01-17T04:08:03.573Z,97598.44
2023-01-17T04:10:30.054Z,97605.31
2023-01-17T04:12:56.600Z,97600.72
2023-01-17T04:15:23.113Z,97604.94
2023-01-17T04:17:49.667Z,97600.72
2023-01-17T04:20:29.209Z,97609.16
2023-01-17T04:22:55.763Z,97600.75
2023-01-17T04:25:22.290Z,97613.78
2023-01-17T04:27:48.843Z,97613.00
2023-01-17T04:30:15.372Z,97611.50
2023-01-17T04:32:41.879Z,97607.63
2023-01-17T04:35:09.442Z,97617.59
2023-01-17T04:37:36.359Z,97623.31
2023-01-17T04:40:04.295Z,97623.72
2023-01-17T04:42:30.920Z,97621.78
2023-01-17T04:44:57.416Z,97622.53
2023-01-17T04:47:23.994Z,97635.19
2023-01-17T04:49:50.496Z,97626.75
2023-01-17T04:52:18.690Z,97636.72
2023-01-17T04:54:45.235Z,97636.34
2023-01-17T04:57:11.710Z,97635.16
2023-01-17T04:59:38.197Z,97645.53
2023-01-17T05:02:04.747Z,97648.22
2023-01-17T05:04:31.293Z,97647.47
2023-01-17T05:06:57.781Z,97650.13
2023-01-17T05:09:24.281Z,97662.00
2023-01-17T05:11:50.999Z,97657.78
2023-01-17T05:14:17.501Z,97660.13
2023-01-17T05:16:43.970Z,97657.03
2023-01-17T05:19:10.487Z,97664.31
2023-01-17T05:21:36.997Z,97664.31
2023-01-17T05:24:03.859Z,97670.44
2023-01-17T05:26:30.367Z,97674.28
2023-01-17T05:28:57.040Z,97681.94
2023-01-17T05:31:23.677Z,97690.75
2023-01-17T05:33:50.263Z,97696.88
2023-01-17T05:36:16.777Z,97695.34
2023-01-17T05:38:43.296Z,97694.97
2023-01-17T05:41:09.796Z,97699.94
2023-01-17T05:43:36.425Z,97696.47
2023-01-17T05:46:02.993Z,97712.56
2023-01-17T05:48:29.592Z,97702.63
2023-01-17T05:50:56.156Z,97709.88
2023-01-17T05:53:23.012Z,97726.38
2023-01-17T05:55:49.751Z,97717.19
2023-01-17T05:58:19.252Z,97730.97
2023-01-17T06:00:46.557Z,97733.66
2023-01-17T06:03:13.528Z,97739.00
2023-01-17T06:05:40.298Z,97743.63
2023-01-17T06:08:07.310Z,97754.75
2023-01-17T06:10:34.377Z,97747.06
2023-01-17T06:13:06.260Z,97753.97
2023-01-17T06:15:34.294Z,97760.13
2023-01-17T06:18:05.191Z,97762.38
2023-01-17T06:20:31.722Z,97755.88
2023-01-17T06:23:01.002Z,97762.78
2023-01-17T06:25:27.565Z,97757.81
2023-01-17T06:27:55.415Z,97756.28
2023-01-17T06:30:22.039Z,97755.13
2023-01-17T06:32:55.114Z,97756.28
2023-01-17T06:35:22.635Z,97762.41
2023-01-17T06:37:55.367Z,97766.22
2023-01-17T06:40:22.501Z,97769.28
2023-01-17T06:42:49.038Z,97783.09
2023-01-17T06:45:15.591Z,97778.47
2023-01-17T06:47:42.712Z,97784.63
2023-01-17T06:50:11.429Z,97778.13
2023-01-17T06:52:37.971Z,97792.28
2023-01-17T06:55:04.740Z,97793.81
2023-01-17T06:57:31.326Z,97787.66
2023-01-17T06:59:57.870Z,97798.78
2023-01-17T07:02:24.476Z,97803.00
2023-01-17T07:04:51.087Z,97808.00
2023-01-17T07:07:17.875Z,97817.16
2023-01-17T07:09:44.460Z,97811.44
2023-01-17T07:12:11.143Z,97814.47
2023-01-17T07:14:37.691Z,97816.78
2023-01-17T07:17:04.515Z,97823.28
2023-01-17T07:19:32.091Z,97820.63
2023-01-17T07:21:58.670Z,97828.28
2023-01-17T07:24:25.355Z,97844.38
2023-01-17T07:26:52.997Z,97832.13
2023-01-17T07:29:19.847Z,97842.81
2023-01-17T07:31:48.609Z,97839.00
2023-01-17T07:34:15.173Z,97840.13
2023-01-17T07:36:41.752Z,97846.28
2023-01-17T07:39:09.569Z,97846.28
2023-01-17T07:41:41.249Z,97864.69
2023-01-17T07:44:10.092Z,97845.88
2023-01-17T07:46:36.697Z,97840.50
2023-01-17T07:49:03.324Z,97843.19
2023-01-17T07:51:29.869Z,97847.78
2023-01-17T07:53:56.461Z,97840.13
2023-01-17T07:56:23.058Z,97865.03
2023-01-17T07:58:50.051Z,97857.78
2023-01-17T08:01:17.301Z,97851.66
2023-01-17T08:03:43.938Z,97862.00
2023-01-17T08:06:20.200Z,97860.47
2023-01-17T08:08:47.053Z,97859.69
2023-01-17T08:11:14.017Z,97879.63
2023-01-17T08:13:41.719Z,97867.38
2023-01-17T08:16:12.492Z,97865.06
2023-01-17T08:18:39.279Z,97878.09
2023-01-17T08:21:13.287Z,97876.19
2023-01-17T08:23:39.824Z,97873.91
2023-01-17T08:26:06.357Z,97871.59
2023-01-17T08:28:32.977Z,97880.81
2023-01-17T08:31:06.471Z,97879.66
2023-01-17T08:33:32.992Z,97887.34
2023-01-17T08:35:59.571Z,97895.34
2023-01-17T08:38:26.108Z,97894.59
2023-01-17T08:40:52.692Z,97896.13
2023-01-17T08:43:19.757Z,97901.50
2023-01-17T08:45:48.335Z,97906.50
2023-01-17T08:48:15.694Z,97900.38
2023-01-17T08:50:42.244Z,97914.97
2023-01-17T08:53:08.846Z,97918.78
2023-01-17T08:55:39.512Z,97918.38
2023-01-17T08:58:06.058Z,97918.75
2023-01-17T09:00:32.668Z,97928.75
2023-01-17T09:02:59.530Z,97918.00
2023-01-17T09:05:26.059Z,97924.16
2023-01-17T09:07:52.597Z,97913.09
2023-01-17T09:10:19.319Z,97928.44
2023-01-17T09:12:45.908Z,97936.47
2023-01-17T09:15:15.582Z,97929.53
2023-01-17T09:17:42.145Z,97951.75
2023-01-17T09:20:09.320Z,97944.09
2023-01-17T09:22:37.698Z,97962.47
2023-01-17T09:25:05.083Z,97955.16
2023-01-17T09:27:31.609Z,97960.94
2023-01-17T09:29:58.245Z,97955.19
2023-01-17T09:32:24.839Z,97975.53
2023-01-17T09:34:51.363Z,97978.63
2023-01-17T09:37:17.942Z,97974.78
2023-01-17T09:39:44.501Z,97972.53
2023-01-17T09:42:33.961Z,97980.19
2023-01-17T09:45:00.628Z,97980.97
2023-01-17T09:47:44.947Z,97994.41
2023-01-17T09:50:21.418Z,97992.13
2023-01-17T09:52:48.064Z,97999.75
2023-01-17T09:55:15.816Z,97994.78
2023-01-17T09:58:00.609Z,98015.88
2023-01-17T10:00:58.319Z,98012.34
2023-01-17T10:03:53.085Z,98012.41
2023-01-17T10:06:34.147Z,98026.97
2023-01-17T10:09:13.575Z,98032.75
2023-01-17T10:12:21.739Z,98035.41
2023-01-17T10:14:53.297Z,98037.34
2023-01-17T10:17:40.975Z,98048.81
2023-01-17T10:20:51.168Z,98049.56
2023-01-17T10:23:22.079Z,98056.03
2023-01-17T10:25:49.859Z,98068.34
2023-01-17T10:28:20.511Z,98064.44
2023-01-17T10:31:04.850Z,98075.19
2023-01-17T10:33:38.217Z,98070.56
2023-01-17T10:36:15.282Z,98071.75
2023-01-17T10:38:46.071Z,98080.53
2023-01-17T10:41:26.335Z,98083.63
2023-01-17T10:43:59.786Z,98079.03
2023-01-17T10:46:31.440Z,98086.34
2023-01-17T10:48:58.226Z,98087.03
2023-01-17T10:51:49.904Z,98100.06
2023-01-17T10:54:49.959Z,98092.38
2023-01-17T10:57:20.798Z,98092.72
2023-01-17T10:59:47.371Z,98110.72
2023-01-17T11:02:30.206Z,98096.94
2023-01-17T11:04:57.727Z,98101.47
2023-01-17T11:07:29.402Z,98105.66
2023-01-17T11:09:57.999Z,98110.69
2023-01-17T11:12:53.284Z,98120.25
2023-01-17T11:15:25.761Z,98122.16
2023-01-17T11:18:06.398Z,98147.00
2023-01-17T11:20:40.084Z,98138.38
2023-01-17T11:23:13.206Z,98137.97
2023-01-17T11:25:39.865Z,98142.81
2023-01-17T11:28:19.420Z,98145.94
2023-01-17T11:30:57.583Z,98145.59
2023-01-17T11:33:35.201Z,98148.22
2023-01-17T11:36:01.784Z,98144.66
2023-01-17T11:38:28.505Z,98152.78
2023-01-17T11:41:15.037Z,98149.44
2023-01-17T11:43:58.510Z,98152.59
2023-01-17T11:46:26.067Z,98149.22
2023-01-17T11:48:57.449Z,98151.06
2023-01-17T11:51:30.526Z,98158.25
2023-01-17T11:54:25.070Z,98163.59
2023-01-17T11:56:57.721Z,98166.34
2023-01-17T11:59:28.796Z,98158.25
2023-01-17T12:02:16.208Z,98164.44
2023-01-17T12:04:47.453Z,98156.44
2023-01-17T12:07:36.229Z,98150.91
2023-01-17T12:10:09.724Z,98151.41
2023-01-17T12:13:01.132Z,98147.72
2023-01-17T12:15:59.997Z,98148.19
2023-01-17T12:19:03.305Z,98154.78
2023-01-17T12:21:48.579Z,98164.00
2023-01-17T12:24:40.376Z,98163.66
2023-01-17T12:27:16.833Z,98159.47
2023-01-17T12:29:49.728Z,98165.28
2023-01-17T12:32:29.328Z,98174.53
2023-01-17T12:35:00.952Z,98175.66
2023-01-17T12:37:39.811Z,98177.19
2023-01-17T12:40:30.094Z,98179.09
2023-01-17T12:43:08.045Z,98179.09
2023-01-17T12:45:38.675Z,98186.81
2023-01-17T12:48:10.816Z,98187.19
2023-01-17T12:50:43.321Z,98196.81
2023-01-17T12:53:19.025Z,98194.50
2023-01-17T12:55:51.291Z,98199.50
2023-01-17T12:58:23.853Z,98201.78
2023-01-17T13:01:03.556Z,98210.63
2023-01-17T13:03:53.131Z,98204.06
2023-01-17T13:06:53.187Z,98209.44
2023-01-17T13:09:22.375Z,98212.16
2023-01-17T13:11:55.120Z,98209.47
2023-01-17T13:14:21.658Z,98212.50
2023-01-17T13:16:57.825Z,98216.66
2023-01-17T13:19:34.871Z,98221.22
2023-01-17T13:22:03.079Z,98226.81
2023-01-17T13:24:52.165Z,98229.47
2023-01-17T13:27:39.118Z,98234.94
2023-01-17T13:30:32.188Z,98232.34
2023-01-17T13:33:12.825Z,98243.53
2023-01-17T13:35:44.219Z,98234.72
2023-01-17T13:38:29.918Z,98250.97
2023-01-17T13:41:01.008Z,98257.53
2023-01-17T13:43:31.533Z,98261.75
2023-01-17T13:46:00.383Z,98262.53
2023-01-17T13:48:30.010Z,98268.66
2023-01-17T13:51:02.361Z,98279.44
2023-01-17T13:53:39.535Z,98282.13
2023-01-17T13:56:08.962Z,98284.41
2023-01-17T13:58:49.975Z,98279.03
2023-01-17T14:01:45.622Z,98272.88
2023-01-17T14:04:12.584Z,98277.88
2023-01-17T14:06:41.074Z,98280.13
2023-01-17T14:09:26.123Z,98283.56
2023-01-17T14:12:06.103Z,98296.56
2023-01-17T14:14:41.699Z,98301.09
2023-01-17T14:17:14.442Z,98304.91
2023-01-17T14:19:42.618Z,98315.66
2023-01-17T14:22:18.419Z,98314.84
2023-01-17T14:25:09.993Z,98329.00
2023-01-17T14:28:15.643Z,98320.19
2023-01-17T14:30:42.488Z,98330.09
2023-01-17T14:33:30.058Z,98338.50
2023-01-17T14:35:58.893Z,98338.09
2023-01-17T14:38:31.649Z,98345.41
2023-01-17T14:41:07.531Z,98347.66
2023-01-17T14:43:35.908Z,98348.00
2023-01-17T14:46:04.957Z,98346.13
2023-01-17T14:48:31.624Z,98349.25
2023-01-17T14:51:00.125Z,98347.25
2023-01-17T14:53:31.387Z,98354.59
2023-01-17T14:56:00.596Z,98363.41
2023-01-17T14:58:32.535Z,98359.19
2023-01-17T15:01:05.536Z,98359.19
2023-01-17T15:03:35.428Z,98360.34
2023-01-17T15:06:23.146Z,98363.31
2023-01-17T15:08:50.249Z,98354.50
2023-01-17T15:11:20.070Z,98358.31
2023-01-17T15:13:49.968Z,98363.25
2023-01-17T15:16:38.039Z,98369.69
2023-01-17T15:19:12.866Z,98365.41
2023-01-17T15:21:42.624Z,98369.97
2023-01-17T15:24:18.275Z,98372.94
2023-01-17T15:26:45.176Z,98379.00
2023-01-17T15:29:17.573Z,98379.31
2023-01-17T15:31:49.314Z,98384.97
2023-01-17T15:34:29.409Z,98384.50
2023-01-17T15:36:58.551Z,98387.59
2023-01-17T15:39:30.282Z,98383.69
2023-01-17T15:41:59.458Z,98386.69
2023-01-17T15:44:50.342Z,98390.78
2023-01-17T15:47:27.830Z,98393.72
2023-01-17T15:49:54.382Z,98400.19
2023-01-17T15:52:21.539Z,98397.47
2023-01-17T15:55:12.817Z,98396.97
2023-01-17T15:57:39.929Z,98401.53
2023-01-17T16:00:14.747Z,98396.81
2023-01-17T16:02:46.006Z,98399.47
2023-01-17T16:05:33.916Z,98398.22
2023-01-17T16:08:04.248Z,98405.22
2023-01-17T16:10:39.196Z,98407.09
2023-01-17T16:13:08.198Z,98415.06
2023-01-17T16:15:36.591Z,98414.59
2023-01-17T16:18:19.437Z,98415.97
2023-01-17T16:20:59.313Z,98412.66
2023-01-17T16:23:27.212Z,98416.03
2023-01-17T16:25:56.702Z,98417.88
2023-01-17T16:28:23.486Z,98414.38
2023-01-17T16:30:50.192Z,98408.59
2023-01-17T16:33:16.880Z,98415.03
2023-01-17T16:35:43.439Z,98418.84
2023-01-17T16:38:19.751Z,98423.38
2023-01-17T16:40:46.965Z,98425.53
2023-01-17T16:43:15.483Z,98418.94
2023-01-17T16:45:45.311Z,98426.97
2023-01-17T16:48:12.567Z,98429.13
2023-01-17T16:50:48.052Z,98432.84
2023-01-17T16:53:15.499Z,98429.75
2023-01-17T16:55:43.038Z,98433.06
2023-01-17T16:58:09.917Z,98434.22
2023-01-17T17:00:36.778Z,98434.94
2023-01-17T17:03:03.396Z,98434.16
2023-01-17T17:05:30.771Z,98433.31
2023-01-17T17:07:57.525Z,98436.19
2023-01-17T17:10:25.249Z,98434.66
2023-01-17T17:12:52.102Z,98438.81
2023-01-17T17:15:18.871Z,98439.09
2023-01-17T17:17:45.415Z,98438.16
2023-01-17T17:20:14.410Z,98434.81
2023-01-17T17:22:45.213Z,98443.44
2023-01-17T17:25:12.256Z,98452.59
2023-01-17T17:27:39.117Z,98456.00
2023-01-17T17:30:06.349Z,98461.34
2023-01-17T17:32:32.900Z,98466.69
2023-01-17T17:34:59.766Z,98461.69
2023-01-17T17:37:28.960Z,98467.38
2023-01-17T17:39:56.374Z,98469.25
2023-01-17T17:42:23.008Z,98465.03
2023-01-17T17:44:49.545Z,98463.09
2023-01-17T17:47:16.408Z,98471.44
2023-01-17T17:49:43.511Z,98470.25
2023-01-17T17:52:10.100Z,98477.41
2023-01-17T17:54:36.746Z,98478.53
2023-01-17T17:57:03.365Z,98483.47
2023-01-17T17:59:30.193Z,98481.81
2023-01-17T18:01:57.123Z,98485.63
2023-01-17T18:04:23.783Z,98484.44
2023-01-17T18:06:50.371Z,98485.88
2023-01-17T18:09:16.968Z,98488.91
2023-01-17T18:11:43.790Z,98485.81
2023-01-17T18:14:14.832Z,98482.38
2023-01-17T18:16:42.270Z,98482.13
2023-01-17T18:19:16.772Z,98490.84
2023-01-17T18:21:43.561Z,98490.41
2023-01-17T18:24:15.150Z,98492.66
2023-01-17T18:26:46.717Z,98497.22
2023-01-17T18:29:15.782Z,98494.88
2023-01-17T18:31:46.032Z,98496.00
2023-01-17T18:34:14.452Z,98491.81
2023-01-17T18:36:41.804Z,98490.94
2023-01-17T18:39:22.439Z,98497.75
2023-01-17T18:41:49.459Z,98499.03
2023-01-17T18:44:16.406Z,98500.88
2023-01-17T18:46:43.310Z,98503.81
2023-01-17T18:49:11.515Z,98496.06
2023-01-17T18:51:38.247Z,98489.84
2023-01-17T18:54:06.914Z,98502.31
2023-01-17T18:56:34.203Z,98505.22
2023-01-17T18:59:01.146Z,98507.41
2023-01-17T19:01:30.933Z,98514.09
2023-01-17T19:03:59.327Z,98509.34
2023-01-17T19:06:30.541Z,98504.59
2023-01-17T19:08:58.408Z,98506.06
2023-01-17T19:11:25.560Z,98506.75
2023-01-17T19:13:53.456Z,98505.88
2023-01-17T19:16:29.211Z,98508.78
2023-01-17T19:18:57.406Z,98508.28
2023-01-17T19:21:26.053Z,98508.50
2023-01-17T19:23:53.845Z,98515.97
2023-01-17T19:26:20.521Z,98508.56
2023-01-17T19:28:48.616Z,98518.69
2023-01-17T19:31:26.778Z,98521.16
2023-01-17T19:33:57.249Z,98520.97
2023-01-17T19:36:34.329Z,98522.72
2023-01-17T19:39:06.295Z,98525.97
2023-01-17T19:41:40.748Z,98529.63
2023-01-17T19:44:08.958Z,98528.75
2023-01-17T19:46:36.059Z,98530.53
2023-01-17T19:49:04.104Z,98536.53
2023-01-17T19:51:30.704Z,98537.97
2023-01-17T19:53:59.884Z,98538.63
2023-01-17T19:56:27.433Z,98529.44
2023-01-17T19:58:54.091Z,98532.44
2023-01-17T20:01:24.546Z,98538.44
2023-01-17T20:03:51.745Z,98542.09
2023-01-17T20:06:23.309Z,98539.34
2023-01-17T20:08:50.132Z,98540.31
2023-01-17T20:11:19.176Z,98531.56
2023-01-17T20:13:46.667Z,98541.00
2023-01-17T20:16:14.499Z,98542.44
2023-01-17T20:18:41.478Z,98539.44
2023-01-17T20:21:13.516Z,98545.09
2023-01-17T20:23:46.911Z,98538.22
2023-01-17T20:26:19.092Z,98535.56
2023-01-17T20:28:47.045Z,98544.63
2023-01-17T20:31:17.547Z,98545.31
2023-01-17T20:33:45.563Z,98536.44
2023-01-17T20:36:15.007Z,98543.66
2023-01-17T20:38:45.519Z,98540.66
2023-01-17T20:41:35.982Z,98544.00
2023-01-17T20:44:04.479Z,98550.44
2023-01-17T20:46:35.354Z,98551.88
2023-01-17T20:49:05.363Z,98556.28
2023-01-17T20:51:34.450Z,98556.19
2023-01-17T20:54:03.438Z,98562.94
2023-01-17T20:56:34.535Z,98573.16
2023-01-17T20:59:03.679Z,98574.22
2023-01-17T21:01:30.709Z,98583.31
2023-01-17T21:03:57.690Z,98591.63
2023-01-17T21:06:24.677Z,98600.72
2023-01-17T21:08:51.693Z,98599.97
2023-01-17T21:11:20.739Z,98612.50
2023-01-17T21:13:51.237Z,98619.69
2023-01-17T21:16:20.394Z,98623.66
2023-01-17T21:18:48.137Z,98627.00
2023-01-17T21:21:17.679Z,98629.19
2023-01-17T21:23:45.037Z,98631.41
2023-01-17T21:26:13.606Z,98635.81
2023-01-17T21:28:43.185Z,98643.47
2023-01-17T21:31:25.327Z,98646.47
2023-01-17T21:33:53.305Z,98641.50
2023-01-17T21:36:23.219Z,98659.13
2023-01-17T21:38:56.789Z,98658.69
2023-01-17T21:41:26.513Z,98660.22
2023-01-17T21:43:57.897Z,98662.53
2023-01-17T21:46:25.279Z,98667.88
2023-01-17T21:48:51.852Z,98661.78
2023-01-17T21:51:19.753Z,98663.34
2023-01-17T21:53:46.377Z,98668.66
2023-01-17T21:56:32.618Z,98675.53
2023-01-17T21:58:59.751Z,98672.44
2023-01-17T22:01:32.040Z,98674.28
2023-01-17T22:04:02.952Z,98676.19
2023-01-17T22:06:30.735Z,98676.28
2023-01-17T22:08:58.047Z,98666.88
2023-01-17T22:11:25.816Z,98680.47
2023-01-17T22:13:53.163Z,98678.94
2023-01-17T22:16:23.345Z,98688.00
2023-01-17T22:18:50.821Z,98682.34
2023-01-17T22:21:23.011Z,98679.69
2023-01-17T22:23:52.264Z,98685.81
2023-01-17T22:26:19.898Z,98689.56
2023-01-17T22:28:46.415Z,98695.66
2023-01-17T22:31:24.809Z,98691.00
2023-01-17T22:33:59.638Z,98684.13
2023-01-17T22:36:26.680Z,98688.00
2023-01-17T22:38:53.311Z,98680.81
2023-01-17T22:41:25.568Z,98684.25
2023-01-17T22:43:53.713Z,98676.59
2023-01-17T22:46:25.349Z,98667.06
2023-01-17T22:48:53.305Z,98665.50
2023-01-17T22:51:21.701Z,98656.72
2023-01-17T22:53:50.308Z,98655.50
2023-01-17T22:56:19.283Z,98665.81
2023-01-17T22:58:48.602Z,98665.03
2023-01-17T23:01:18.007Z,98657.06
2023-01-17T23:03:45.095Z,98662.69
2023-01-17T23:06:14.523Z,98665.69
2023-01-17T23:08:43.261Z,98664.13
2023-01-17T23:11:43.921Z,98654.16
2023-01-17T23:14:52.777Z,98663.56
2023-01-17T23:17:42.628Z,98659.97
2023-01-17T23:20:10.472Z,98655.66
2023-01-17T23:22:37.068Z,98657.84
2023-01-17T23:25:12.486Z,98650.50
2023-01-17T23:28:03.495Z,98652.72
2023-01-17T23:30:35.436Z,98648.03
2023-01-17T23:33:10.059Z,98649.78
2023-01-17T23:35:41.634Z,98651.22
2023-01-17T23:38:29.450Z,98637.16
2023-01-17T23:41:25.761Z,98632.81
2023-01-17T23:43:57.533Z,98625.03
2023-01-17T23:46:25.463Z,98628.94
2023-01-17T23:48:52.096Z,98624.56
2023-01-17T23:51:18.807Z,98618.50
2023-01-17T23:53:45.359Z,98616.91
2023-01-17T23:56:23.133Z,98615.34
2023-01-17T23:58:49.683Z,98605.06
